Time,TemperatureF,DewpointF,PressureIn,WindDirection,WindDirectionDegrees,WindSpeedMPH,WindSpeedGustMPH,Humidity,HourlyPrecipIn,Conditions,Clouds,dailyrainin,SoftwareType,DateUTC
2013-02-04 00:02:00,20.7,14.9,30.23,WSW,254,3.0,4.0,78,0.00,,,0.00,Wunderground v.1.15,2013-02-04 07:02:00,
2013-02-04 00:07:00,18.5,11.6,30.23,WSW,256,5.0,9.0,74,0.00,,,0.00,Wunderground v.1.15,2013-02-04 07:07:00,
2013-02-04 00:12:00,18.3,12.6,30.23,WNW,284,4.0,6.0,78,0.00,,,0.00,Wunderground v.1.15,2013-02-04 07:12:00,
2013-02-04 00:17:00,18.2,12.5,30.23,WNW,285,3.0,6.0,78,0.00,,,0.00,Wunderground v.1.15,2013-02-04 07:17:00,
2013-02-04 00:22:00,17.8,12.1,30.23,WNW,285,4.0,4.0,78,0.00,,,0.00,Wunderground v.1.15,2013-02-04 07:22:00,
2013-02-04 00:27:00,16.6,10.6,30.23,WNW,283,5.0,7.0,77,0.00,,,0.00,Wunderground v.1.15,2013-02-04 07:27:00,
2013-02-04 00:32:00,16.5,11.1,30.23,WNW,283,3.0,5.0,79,0.00,,,0.00,Wunderground v.1.15,2013-02-04 07:32:00,
2013-02-04 00:37:00,17.0,11.9,30.23,WNW,283,4.0,6.0,80,0.00,,,0.00,Wunderground v.1.15,2013-02-04 07:37:00,
2013-02-04 00:42:00,18.0,13.4,30.24,WNW,294,3.0,5.0,82,0.00,,,0.00,Wunderground v.1.15,2013-02-04 07:42:00,
2013-02-04 00:47:00,19.0,14.4,30.23,WNW,294,1.0,5.0,82,0.00,,,0.00,Wunderground v.1.15,2013-02-04 07:47:00,
2013-02-04 00:52:00,20.1,15.5,30.23,NW,307,3.0,5.0,82,0.00,,,0.00,Wunderground v.1.15,2013-02-04 07:52:00,
2013-02-04 00:57:00,20.8,15.9,30.23,NW,320,3.0,6.0,81,0.00,,,0.00,Wunderground v.1.15,2013-02-04 07:57:00,
2013-02-04 01:02:00,21.2,15.4,30.23,NW,319,0.0,4.0,78,0.00,,,0.00,Wunderground v.1.15,2013-02-04 08:02:00,
2013-02-04 01:07:00,20.4,13.4,30.23,NE,43,1.0,4.0,74,0.00,,,0.00,Wunderground v.1.15,2013-02-04 08:07:00,
2013-02-04 01:12:00,18.3,10.8,30.23,NE,43,2.0,3.0,72,0.00,,,0.00,Wunderground v.1.15,2013-02-04 08:12:00,
2013-02-04 01:17:00,17.5,10.9,30.23,NE,42,1.0,3.0,75,0.00,,,0.00,Wunderground v.1.15,2013-02-04 08:17:00,
2013-02-04 01:22:00,16.8,10.2,30.24,NE,43,3.0,4.0,75,0.00,,,0.00,Wunderground v.1.15,2013-02-04 08:22:00,
2013-02-04 01:27:00,16.1,9.9,30.24,NE,43,2.0,6.0,76,0.00,,,0.00,Wunderground v.1.15,2013-02-04 08:27:00,
2013-02-04 01:32:00,16.9,11.5,30.25,NE,42,1.0,5.0,79,0.00,,,0.00,Wunderground v.1.15,2013-02-04 08:32:00,
2013-02-04 01:37:00,17.1,11.7,30.24,NE,42,2.0,5.0,79,0.00,,,0.00,Wunderground v.1.15,2013-02-04 08:37:00,
2013-02-04 01:42:00,17.1,11.4,30.24,NE,42,2.0,3.0,78,0.00,,,0.00,Wunderground v.1.15,2013-02-04 08:42:00,
2013-02-04 01:47:00,17.6,12.2,30.25,NE,42,3.0,4.0,79,0.00,,,0.00,Wunderground v.1.15,2013-02-04 08:47:00,
2013-02-04 01:52:00,17.7,12.3,30.25,WNW,300,8.0,8.0,79,0.00,,,0.00,Wunderground v.1.15,2013-02-04 08:52:00,
2013-02-04 01:57:00,18.0,12.6,30.25,WNW,298,7.0,8.0,79,0.00,,,0.00,Wunderground v.1.15,2013-02-04 08:57:00,
2013-02-04 02:02:00,18.6,13.2,30.25,WNW,296,7.0,8.0,79,0.00,,,0.00,Wunderground v.1.15,2013-02-04 09:02:00,
2013-02-04 02:07:00,18.9,13.2,30.24,WNW,292,7.0,8.0,78,0.00,,,0.00,Wunderground v.1.15,2013-02-04 09:07:00,
2013-02-04 02:12:00,18.4,12.1,30.24,SW,221,10.0,11.0,76,0.00,,,0.00,Wunderground v.1.15,2013-02-04 09:12:00,
2013-02-04 02:17:00,16.6,10.1,30.24,SW,223,10.0,11.0,75,0.00,,,0.00,Wunderground v.1.15,2013-02-04 09:17:00,
2013-02-04 02:22:00,15.7,9.8,30.24,SW,231,12.0,14.0,77,0.00,,,0.00,Wunderground v.1.15,2013-02-04 09:22:00,
2013-02-04 02:27:00,15.1,9.5,30.25,SW,231,9.0,14.0,78,0.00,,,0.00,Wunderground v.1.15,2013-02-04 09:27:00,
2013-02-04 02:32:00,14.5,8.6,30.25,SSW,203,12.0,12.0,77,0.00,,,0.00,Wunderground v.1.15,2013-02-04 09:32:00,
2013-02-04 02:37:00,12.1,6.3,30.25,SW,215,11.0,13.0,77,0.00,,,0.00,Wunderground v.1.15,2013-02-04 09:37:00,
2013-02-04 02:42:00,12.9,7.6,30.25,SW,215,12.0,13.0,79,0.00,,,0.00,Wunderground v.1.15,2013-02-04 09:42:00,
2013-02-04 02:47:00,15.9,11.1,30.25,WSW,238,6.0,13.0,81,0.00,,,0.00,Wunderground v.1.15,2013-02-04 09:47:00,
2013-02-04 02:52:00,18.1,13.0,30.25,SW,233,8.0,10.0,80,0.00,,,0.00,Wunderground v.1.15,2013-02-04 09:52:00,
2013-02-04 02:57:00,18.1,11.8,30.25,North,360,0.0,10.0,76,0.00,,,0.00,Wunderground v.1.15,2013-02-04 09:57:00,
2013-02-04 03:02:00,17.8,11.2,30.25,North,5,0.0,4.0,75,0.00,,,0.00,Wunderground v.1.15,2013-02-04 10:02:00,
2013-02-04 03:07:00,16.5,9.4,30.25,North,5,0.0,4.0,73,0.00,,,0.00,Wunderground v.1.15,2013-02-04 10:07:00,
2013-02-04 03:12:00,15.9,9.4,30.25,North,5,0.0,1.0,75,0.00,,,0.00,Wunderground v.1.15,2013-02-04 10:12:00,
2013-02-04 03:17:00,16.3,10.4,30.25,North,360,0.0,2.0,77,0.00,,,0.00,Wunderground v.1.15,2013-02-04 10:17:00,
2013-02-04 03:22:00,16.7,10.7,30.25,North,5,0.0,1.0,77,0.00,,,0.00,Wunderground v.1.15,2013-02-04 10:22:00,
2013-02-04 03:27:00,16.7,10.4,30.25,North,5,0.0,2.0,76,0.00,,,0.00,Wunderground v.1.15,2013-02-04 10:27:00,
2013-02-04 03:32:00,16.4,10.4,30.25,North,360,2.0,2.0,77,0.00,,,0.00,Wunderground v.1.15,2013-02-04 10:32:00,
2013-02-04 03:37:00,15.1,8.3,30.25,NNE,25,3.0,4.0,74,0.00,,,0.00,Wunderground v.1.15,2013-02-04 10:37:00,
2013-02-04 03:42:00,13.7,7.2,30.25,South,185,4.0,6.0,75,0.00,,,0.00,Wunderground v.1.15,2013-02-04 10:42:00,
2013-02-04 03:47:00,13.8,8.2,30.25,South,186,3.0,6.0,78,0.00,,,0.00,Wunderground v.1.15,2013-02-04 10:47:00,
2013-02-04 03:52:00,12.9,7.3,30.25,South,186,1.0,4.0,78,0.00,,,0.00,Wunderground v.1.15,2013-02-04 10:52:00,
2013-02-04 03:57:00,11.8,6.3,30.25,South,186,0.0,4.0,78,0.00,,,0.00,Wunderground v.1.15,2013-02-04 10:57:00,
2013-02-04 04:02:00,11.7,6.4,30.26,South,186,0.0,2.0,79,0.00,,,0.00,Wunderground v.1.15,2013-02-04 11:02:00,
2013-02-04 04:07:00,12.2,7.5,30.26,South,186,0.0,2.0,81,0.00,,,0.00,Wunderground v.1.15,2013-02-04 11:07:00,
2013-02-04 04:12:00,12.6,7.9,30.26,South,186,1.0,2.0,81,0.00,,,0.00,Wunderground v.1.15,2013-02-04 11:12:00,
2013-02-04 04:17:00,13.0,8.5,30.27,South,186,0.0,3.0,82,0.00,,,0.00,Wunderground v.1.15,2013-02-04 11:17:00,
2013-02-04 04:22:00,14.6,10.4,30.27,South,186,2.0,2.0,83,0.00,,,0.00,Wunderground v.1.15,2013-02-04 11:22:00,
2013-02-04 04:27:00,15.6,11.4,30.27,South,186,0.0,2.0,83,0.00,,,0.00,Wunderground v.1.15,2013-02-04 11:27:00,
2013-02-04 04:32:00,16.0,11.7,30.27,South,186,0.0,1.0,83,0.00,,,0.00,Wunderground v.1.15,2013-02-04 11:32:00,
2013-02-04 04:37:00,16.6,12.3,30.27,SW,223,2.0,3.0,83,0.00,,,0.00,Wunderground v.1.15,2013-02-04 11:37:00,
2013-02-04 04:42:00,16.9,12.4,30.27,SW,223,2.0,4.0,82,0.00,,,0.00,Wunderground v.1.15,2013-02-04 11:42:00,
2013-02-04 04:47:00,12.7,6.3,30.27,SW,224,3.0,5.0,75,0.00,,,0.00,Wunderground v.1.15,2013-02-04 11:47:00,
2013-02-04 04:52:00,12.6,7.3,30.27,WSW,239,5.0,6.0,79,0.00,,,0.00,Wunderground v.1.15,2013-02-04 11:52:00,
2013-02-04 04:57:00,10.4,4.9,30.26,WSW,240,5.0,7.0,78,0.00,,,0.00,Wunderground v.1.15,2013-02-04 11:57:00,
2013-02-04 05:02:00,9.2,3.7,30.27,WSW,248,4.0,6.0,78,0.00,,,0.00,Wunderground v.1.15,2013-02-04 12:02:00,
2013-02-04 05:07:00,8.4,3.2,30.26,WSW,248,6.0,6.0,79,0.00,,,0.00,Wunderground v.1.15,2013-02-04 12:07:00,
2013-02-04 05:12:00,8.2,3.3,30.27,WSW,250,4.0,5.0,80,0.00,,,0.00,Wunderground v.1.15,2013-02-04 12:12:00,
2013-02-04 05:17:00,8.0,3.4,30.27,WSW,247,7.0,8.0,81,0.00,,,0.00,Wunderground v.1.15,2013-02-04 12:17:00,
2013-02-04 05:22:00,7.4,2.8,30.27,WSW,244,5.0,7.0,81,0.00,,,0.00,Wunderground v.1.15,2013-02-04 12:22:00,
2013-02-04 05:27:00,9.2,4.8,30.27,WSW,244,4.0,7.0,82,0.00,,,0.00,Wunderground v.1.15,2013-02-04 12:27:00,
2013-02-04 05:32:00,11.1,6.7,30.26,WSW,237,3.0,5.0,82,0.00,,,0.00,Wunderground v.1.15,2013-02-04 12:32:00,
2013-02-04 05:37:00,10.9,6.2,30.26,WSW,250,6.0,6.0,81,0.00,,,0.00,Wunderground v.1.15,2013-02-04 12:37:00,
2013-02-04 05:42:00,11.5,6.8,30.27,WSW,240,3.0,6.0,81,0.00,,,0.00,Wunderground v.1.15,2013-02-04 12:42:00,
2013-02-04 05:47:00,9.6,4.1,30.27,WSW,252,5.0,7.0,78,0.00,,,0.00,Wunderground v.1.15,2013-02-04 12:47:00,
2013-02-04 05:52:00,9.1,3.6,30.27,West,264,4.0,4.0,78,0.00,,,0.00,Wunderground v.1.15,2013-02-04 12:52:00,
2013-02-04 05:57:00,9.2,4.0,30.27,West,264,3.0,4.0,79,0.00,,,0.00,Wunderground v.1.15,2013-02-04 12:57:00,
2013-02-04 06:02:00,9.2,4.3,30.28,West,280,6.0,6.0,80,0.00,,,0.00,Wunderground v.1.15,2013-02-04 13:02:00,
2013-02-04 06:07:00,9.2,4.3,30.27,WNW,296,6.0,8.0,80,0.00,,,0.00,Wunderground v.1.15,2013-02-04 13:07:00,
2013-02-04 06:12:00,9.2,4.0,30.27,WNW,296,6.0,6.0,79,0.00,,,0.00,Wunderground v.1.15,2013-02-04 13:12:00,
2013-02-04 06:17:00,9.9,5.0,30.28,WNW,295,5.0,6.0,80,0.00,,,0.00,Wunderground v.1.15,2013-02-04 13:17:00,
2013-02-04 06:22:00,10.4,5.7,30.28,WNW,296,3.0,4.0,81,0.00,,,0.00,Wunderground v.1.15,2013-02-04 13:22:00,
2013-02-04 06:27:00,10.6,5.6,30.28,WNW,296,3.0,4.0,80,0.00,,,0.00,Wunderground v.1.15,2013-02-04 13:27:00,
2013-02-04 06:32:00,10.5,5.3,30.28,WNW,295,2.0,4.0,79,0.00,,,0.00,Wunderground v.1.15,2013-02-04 13:32:00,
2013-02-04 06:37:00,10.5,5.0,30.29,WNW,296,3.0,5.0,78,0.00,,,0.00,Wunderground v.1.15,2013-02-04 13:37:00,
2013-02-04 06:42:00,10.4,4.9,30.28,WNW,300,4.0,7.0,78,0.00,,,0.00,Wunderground v.1.15,2013-02-04 13:42:00,
2013-02-04 06:47:00,10.3,4.5,30.28,WNW,300,5.0,7.0,77,0.00,,,0.00,Wunderground v.1.15,2013-02-04 13:47:00,
2013-02-04 06:52:00,9.8,3.7,30.28,WNW,300,4.0,5.0,76,0.00,,,0.00,Wunderground v.1.15,2013-02-04 13:52:00,
2013-02-04 06:57:00,9.3,3.0,30.29,WNW,300,5.0,5.0,75,0.00,,,0.00,Wunderground v.1.15,2013-02-04 13:57:00,
2013-02-04 07:02:00,9.0,2.7,30.29,WNW,300,5.0,5.0,75,0.00,,,0.00,Wunderground v.1.15,2013-02-04 14:02:00,
2013-02-04 07:07:00,7.1,0.0,30.29,WNW,300,4.0,5.0,72,0.00,,,0.00,Wunderground v.1.15,2013-02-04 14:07:00,
2013-02-04 07:12:00,6.2,-0.3,30.29,WNW,300,4.0,5.0,74,0.00,,,0.00,Wunderground v.1.15,2013-02-04 14:12:00,
2013-02-04 07:17:00,5.6,-0.6,30.30,WNW,299,3.0,6.0,75,0.00,,,0.00,Wunderground v.1.15,2013-02-04 14:17:00,
2013-02-04 07:22:00,6.4,0.7,30.30,WNW,298,3.0,5.0,77,0.00,,,0.00,Wunderground v.1.15,2013-02-04 14:22:00,
2013-02-04 07:27:00,7.4,2.3,30.30,WNW,298,4.0,5.0,79,0.00,,,0.00,Wunderground v.1.15,2013-02-04 14:27:00,
2013-02-04 07:32:00,8.3,3.4,30.30,WNW,298,3.0,4.0,80,0.00,,,0.00,Wunderground v.1.15,2013-02-04 14:32:00,
2013-02-04 07:37:00,9.2,4.6,30.30,WNW,298,2.0,4.0,81,0.00,,,0.00,Wunderground v.1.15,2013-02-04 14:37:00,
2013-02-04 07:42:00,10.3,5.6,30.30,WNW,298,3.0,4.0,81,0.00,,,0.00,Wunderground v.1.15,2013-02-04 14:42:00,
2013-02-04 07:47:00,10.7,6.0,30.30,WNW,298,1.0,4.0,81,0.00,,,0.00,Wunderground v.1.15,2013-02-04 14:47:00,
2013-02-04 07:52:00,10.8,5.8,30.30,WNW,298,2.0,2.0,80,0.00,,,0.00,Wunderground v.1.15,2013-02-04 14:52:00,
2013-02-04 07:57:00,11.1,6.1,30.31,WNW,298,3.0,4.0,80,0.00,,,0.00,Wunderground v.1.15,2013-02-04 14:57:00,
2013-02-04 08:02:00,11.4,6.4,30.31,WNW,298,2.0,4.0,80,0.00,,,0.00,Wunderground v.1.15,2013-02-04 15:02:00,
2013-02-04 08:07:00,11.7,6.4,30.31,WNW,298,4.0,5.0,79,0.00,,,0.00,Wunderground v.1.15,2013-02-04 15:07:00,
2013-02-04 08:12:00,12.1,6.3,30.31,WNW,298,5.0,6.0,77,0.00,,,0.00,Wunderground v.1.15,2013-02-04 15:12:00,
2013-02-04 08:17:00,11.9,5.5,30.31,WNW,296,4.0,6.0,75,0.00,,,0.00,Wunderground v.1.15,2013-02-04 15:17:00,
2013-02-04 08:22:00,11.8,5.1,30.32,WNW,296,4.0,5.0,74,0.00,,,0.00,Wunderground v.1.15,2013-02-04 15:22:00,
2013-02-04 08:27:00,11.1,4.1,30.32,WNW,284,4.0,5.0,73,0.00,,,0.00,Wunderground v.1.15,2013-02-04 15:27:00,
2013-02-04 08:32:00,10.9,3.9,30.32,WNW,296,6.0,6.0,73,0.00,,,0.00,Wunderground v.1.15,2013-02-04 15:32:00,
2013-02-04 08:37:00,11.6,5.2,30.33,WNW,298,5.0,6.0,75,0.00,,,0.00,Wunderground v.1.15,2013-02-04 15:37:00,
2013-02-04 08:42:00,12.7,6.6,30.32,WNW,296,6.0,7.0,76,0.00,,,0.00,Wunderground v.1.15,2013-02-04 15:42:00,
2013-02-04 08:47:00,13.5,6.5,30.32,WNW,285,3.0,7.0,73,0.00,,,0.00,Wunderground v.1.15,2013-02-04 15:47:00,
2013-02-04 08:52:00,13.5,6.1,30.32,WNW,284,4.0,6.0,72,0.00,,,0.00,Wunderground v.1.15,2013-02-04 15:52:00,
2013-02-04 08:57:00,13.3,5.6,30.31,West,281,5.0,6.0,71,0.00,,,0.00,Wunderground v.1.15,2013-02-04 15:57:00,
2013-02-04 09:02:00,14.0,6.9,30.32,West,281,4.0,6.0,73,0.00,,,0.00,Wunderground v.1.15,2013-02-04 16:02:00,
2013-02-04 09:07:00,15.2,8.4,30.32,West,281,4.0,6.0,74,0.00,,,0.00,Wunderground v.1.15,2013-02-04 16:07:00,
2013-02-04 09:12:00,16.4,9.6,30.31,West,280,3.0,5.0,74,0.00,,,0.00,Wunderground v.1.15,2013-02-04 16:12:00,
2013-02-04 09:17:00,16.7,9.5,30.31,West,280,1.0,5.0,73,0.00,,,0.00,Wunderground v.1.15,2013-02-04 16:17:00,
2013-02-04 09:22:00,17.2,10.3,30.32,West,281,1.0,3.0,74,0.00,,,0.00,Wunderground v.1.15,2013-02-04 16:22:00,
2013-02-04 09:27:00,18.3,11.7,30.32,West,280,0.0,3.0,75,0.00,,,0.00,Wunderground v.1.15,2013-02-04 16:27:00,
2013-02-04 09:32:00,19.2,12.6,30.32,West,280,0.0,0.0,75,0.00,,,0.00,Wunderground v.1.15,2013-02-04 16:32:00,
2013-02-04 09:37:00,20.3,13.6,30.31,West,281,0.0,0.0,75,0.00,,,0.00,Wunderground v.1.15,2013-02-04 16:37:00,
2013-02-04 09:42:00,21.0,13.7,30.31,West,281,0.0,0.0,73,0.00,,,0.00,Wunderground v.1.15,2013-02-04 16:42:00,
2013-02-04 09:47:00,21.8,14.5,30.31,West,280,0.0,0.0,73,0.00,,,0.00,Wunderground v.1.15,2013-02-04 16:47:00,
2013-02-04 09:52:00,22.2,14.9,30.31,West,281,0.0,0.0,73,0.00,,,0.00,Wunderground v.1.15,2013-02-04 16:52:00,
2013-02-04 09:57:00,23.0,15.6,30.32,West,281,0.0,0.0,73,0.00,,,0.00,Wunderground v.1.15,2013-02-04 16:57:00,
2013-02-04 10:02:00,23.9,15.9,30.31,West,280,0.0,0.0,71,0.00,,,0.00,Wunderground v.1.15,2013-02-04 17:02:00,
2013-02-04 10:07:00,24.8,16.4,30.32,West,280,0.0,0.0,70,0.00,,,0.00,Wunderground v.1.15,2013-02-04 17:07:00,
2013-02-04 10:12:00,25.2,16.5,30.31,West,280,0.0,0.0,69,0.00,,,0.00,Wunderground v.1.15,2013-02-04 17:12:00,
2013-02-04 10:17:00,25.6,16.5,30.31,West,281,0.0,1.0,68,0.00,,,0.00,Wunderground v.1.15,2013-02-04 17:17:00,
2013-02-04 10:22:00,26.1,16.6,30.32,West,281,0.0,0.0,67,0.00,,,0.00,Wunderground v.1.15,2013-02-04 17:22:00,
2013-02-04 10:27:00,26.5,17.0,30.31,West,273,0.0,1.0,67,0.00,,,0.00,Wunderground v.1.15,2013-02-04 17:27:00,
2013-02-04 10:32:00,26.8,16.6,30.31,West,272,0.0,0.0,65,0.00,,,0.00,Wunderground v.1.15,2013-02-04 17:32:00,
2013-02-04 10:37:00,27.0,17.1,30.31,WNW,289,0.0,0.0,66,0.00,,,0.00,Wunderground v.1.15,2013-02-04 17:37:00,
2013-02-04 10:42:00,27.2,17.3,30.31,NNE,32,2.0,3.0,66,0.00,,,0.00,Wunderground v.1.15,2013-02-04 17:42:00,
2013-02-04 10:47:00,27.7,17.8,30.31,ENE,57,2.0,4.0,66,0.00,,,0.00,Wunderground v.1.15,2013-02-04 17:47:00,
2013-02-04 10:52:00,28.2,18.3,30.30,ENE,62,3.0,4.0,66,0.00,,,0.00,Wunderground v.1.15,2013-02-04 17:52:00,
2013-02-04 10:57:00,28.6,18.3,30.30,East,84,1.0,4.0,65,0.00,,,0.00,Wunderground v.1.15,2013-02-04 17:57:00,
2013-02-04 11:02:00,28.6,18.0,30.31,East,83,3.0,5.0,64,0.00,,,0.00,Wunderground v.1.15,2013-02-04 18:02:00,
2013-02-04 11:07:00,28.7,18.4,30.30,East,84,2.0,5.0,65,0.00,,,0.00,Wunderground v.1.15,2013-02-04 18:07:00,
2013-02-04 11:12:00,28.8,18.1,30.31,East,85,3.0,5.0,64,0.00,,,0.00,Wunderground v.1.15,2013-02-04 18:12:00,
2013-02-04 11:17:00,28.9,18.2,30.30,East,87,3.0,5.0,64,0.00,,,0.00,Wunderground v.1.15,2013-02-04 18:17:00,
2013-02-04 11:22:00,29.3,19.0,30.30,East,94,3.0,5.0,65,0.00,,,0.00,Wunderground v.1.15,2013-02-04 18:22:00,
2013-02-04 11:27:00,29.6,19.3,30.30,East,94,1.0,5.0,65,0.00,,,0.00,Wunderground v.1.15,2013-02-04 18:27:00,
2013-02-04 11:32:00,29.9,19.6,30.30,East,94,3.0,5.0,65,0.00,,,0.00,Wunderground v.1.15,2013-02-04 18:32:00,
2013-02-04 11:37:00,30.0,19.7,30.30,East,94,1.0,5.0,65,0.00,,,0.00,Wunderground v.1.15,2013-02-04 18:37:00,
2013-02-04 11:42:00,30.4,20.0,30.30,East,94,0.0,2.0,65,0.00,,,0.00,Wunderground v.1.15,2013-02-04 18:42:00,
2013-02-04 11:47:00,30.7,20.3,30.29,East,94,0.0,3.0,65,0.00,,,0.00,Wunderground v.1.15,2013-02-04 18:47:00,
2013-02-04 11:52:00,30.9,20.5,30.29,East,94,0.0,1.0,65,0.00,,,0.00,Wunderground v.1.15,2013-02-04 18:52:00,
2013-02-04 11:57:00,31.0,19.9,30.28,East,94,0.0,1.0,63,0.00,,,0.00,Wunderground v.1.15,2013-02-04 18:57:00,
2013-02-04 12:02:00,30.7,19.6,30.28,East,94,0.0,0.0,63,0.00,,,0.00,Wunderground v.1.15,2013-02-04 19:02:00,
2013-02-04 12:07:00,30.7,20.3,30.28,ESE,113,0.0,0.0,65,0.00,,,0.00,Wunderground v.1.15,2013-02-04 19:07:00,
2013-02-04 12:12:00,31.5,21.1,30.27,ESE,113,0.0,0.0,65,0.00,,,0.00,Wunderground v.1.15,2013-02-04 19:12:00,
2013-02-04 12:17:00,32.3,21.1,30.26,ESE,115,0.0,0.0,63,0.00,,,0.00,Wunderground v.1.15,2013-02-04 19:17:00,
2013-02-04 12:22:00,32.9,21.7,30.26,ESE,118,0.0,3.0,63,0.00,,,0.00,Wunderground v.1.15,2013-02-04 19:22:00,
2013-02-04 12:27:00,33.6,22.3,30.25,ESE,118,0.0,3.0,63,0.00,,,0.00,Wunderground v.1.15,2013-02-04 19:27:00,
2013-02-04 12:32:00,34.0,22.0,30.25,ESE,118,0.0,0.0,61,0.00,,,0.00,Wunderground v.1.15,2013-02-04 19:32:00,
2013-02-04 12:37:00,34.4,21.5,30.24,ESE,117,0.0,0.0,59,0.00,,,0.00,Wunderground v.1.15,2013-02-04 19:37:00,
2013-02-04 12:42:00,34.5,21.6,30.24,ESE,117,0.0,0.0,59,0.00,,,0.00,Wunderground v.1.15,2013-02-04 19:42:00,
2013-02-04 12:47:00,34.8,21.5,30.24,ESE,117,0.0,0.0,58,0.00,,,0.00,Wunderground v.1.15,2013-02-04 19:47:00,
2013-02-04 12:52:00,35.4,22.1,30.24,ESE,117,0.0,0.0,58,0.00,,,0.00,Wunderground v.1.15,2013-02-04 19:52:00,
2013-02-04 12:57:00,35.7,21.9,30.23,ESE,117,0.0,0.0,57,0.00,,,0.00,Wunderground v.1.15,2013-02-04 19:57:00,
2013-02-04 13:02:00,35.8,21.6,30.23,ESE,117,0.0,0.0,56,0.00,,,0.00,Wunderground v.1.15,2013-02-04 20:02:00,
2013-02-04 13:07:00,36.0,21.8,30.22,ESE,117,0.0,0.0,56,0.00,,,0.00,Wunderground v.1.15,2013-02-04 20:07:00,
2013-02-04 13:12:00,36.4,21.8,30.22,ESE,116,0.0,0.0,55,0.00,,,0.00,Wunderground v.1.15,2013-02-04 20:12:00,
2013-02-04 13:17:00,36.8,22.1,30.21,ESE,115,0.0,0.0,55,0.00,,,0.00,Wunderground v.1.15,2013-02-04 20:17:00,
2013-02-04 13:22:00,37.3,22.6,30.21,ESE,117,0.0,0.0,55,0.00,,,0.00,Wunderground v.1.15,2013-02-04 20:22:00,
2013-02-04 13:27:00,37.6,22.4,30.21,ESE,117,0.0,0.0,54,0.00,,,0.00,Wunderground v.1.15,2013-02-04 20:27:00,
2013-02-04 13:32:00,38.0,23.3,30.21,ESE,117,0.0,0.0,55,0.00,,,0.00,Wunderground v.1.15,2013-02-04 20:32:00,
2013-02-04 13:37:00,38.4,22.3,30.20,ESE,117,0.0,0.0,52,0.00,,,0.00,Wunderground v.1.15,2013-02-04 20:37:00,
2013-02-04 13:42:00,38.7,22.6,30.20,ESE,117,0.0,0.0,52,0.00,,,0.00,Wunderground v.1.15,2013-02-04 20:42:00,
2013-02-04 13:47:00,39.4,23.2,30.20,ESE,117,0.0,0.0,52,0.00,,,0.00,Wunderground v.1.15,2013-02-04 20:47:00,
2013-02-04 13:52:00,40.5,24.2,30.19,ESE,117,0.0,0.0,52,0.00,,,0.00,Wunderground v.1.15,2013-02-04 20:52:00,
2013-02-04 13:57:00,41.3,24.0,30.19,ESE,117,0.0,0.0,50,0.00,,,0.00,Wunderground v.1.15,2013-02-04 20:57:00,
2013-02-04 14:02:00,41.8,24.5,30.19,ESE,117,0.0,0.0,50,0.00,,,0.00,Wunderground v.1.15,2013-02-04 21:02:00,
2013-02-04 14:07:00,42.0,24.7,30.18,ESE,117,0.0,0.0,50,0.00,,,0.00,Wunderground v.1.15,2013-02-04 21:07:00,
2013-02-04 14:12:00,42.0,24.2,30.18,ESE,117,0.0,0.0,49,0.00,,,0.00,Wunderground v.1.15,2013-02-04 21:12:00,
2013-02-04 14:17:00,42.1,24.8,30.18,ESE,117,0.0,0.0,50,0.00,,,0.00,Wunderground v.1.15,2013-02-04 21:17:00,
2013-02-04 14:22:00,42.6,25.2,30.18,ESE,117,0.0,0.0,50,0.00,,,0.00,Wunderground v.1.15,2013-02-04 21:22:00,
2013-02-04 14:27:00,43.0,26.1,30.18,ENE,68,0.0,4.0,51,0.00,,,0.00,Wunderground v.1.15,2013-02-04 21:27:00,
2013-02-04 14:32:00,43.3,25.9,30.18,ENE,65,2.0,3.0,50,0.00,,,0.00,Wunderground v.1.15,2013-02-04 21:32:00,
2013-02-04 14:37:00,42.4,25.1,30.18,ENE,63,0.0,3.0,50,0.00,,,0.00,Wunderground v.1.15,2013-02-04 21:37:00,
2013-02-04 14:42:00,42.2,25.3,30.18,ENE,62,0.0,0.0,51,0.00,,,0.00,Wunderground v.1.15,2013-02-04 21:42:00,
2013-02-04 14:47:00,42.0,25.2,30.18,ENE,62,0.0,0.0,51,0.00,,,0.00,Wunderground v.1.15,2013-02-04 21:47:00,
2013-02-04 14:52:00,40.3,23.6,30.17,ENE,61,0.0,0.0,51,0.00,,,0.00,Wunderground v.1.15,2013-02-04 21:52:00,
2013-02-04 14:57:00,39.9,25.0,30.18,ENE,63,0.0,0.0,55,0.00,,,0.00,Wunderground v.1.15,2013-02-04 21:57:00,
2013-02-04 15:02:00,40.4,25.1,30.17,ENE,62,0.0,0.0,54,0.00,,,0.00,Wunderground v.1.15,2013-02-04 22:02:00,
2013-02-04 15:07:00,41.0,25.6,30.17,ENE,63,0.0,0.0,54,0.00,,,0.00,Wunderground v.1.15,2013-02-04 22:07:00,
2013-02-04 15:12:00,41.3,25.0,30.17,ENE,63,0.0,0.0,52,0.00,,,0.00,Wunderground v.1.15,2013-02-04 22:12:00,
2013-02-04 15:17:00,41.3,24.5,30.17,ENE,63,0.0,0.0,51,0.00,,,0.00,Wunderground v.1.15,2013-02-04 22:17:00,
2013-02-04 15:22:00,40.7,24.0,30.17,ENE,62,0.0,0.0,51,0.00,,,0.00,Wunderground v.1.15,2013-02-04 22:22:00,
2013-02-04 15:27:00,39.9,24.6,30.16,ENE,62,0.0,0.0,54,0.00,,,0.00,Wunderground v.1.15,2013-02-04 22:27:00,
2013-02-04 15:32:00,40.1,24.8,30.16,ENE,62,0.0,0.0,54,0.00,,,0.00,Wunderground v.1.15,2013-02-04 22:32:00,
2013-02-04 15:37:00,40.5,24.7,30.16,ENE,63,0.0,0.0,53,0.00,,,0.00,Wunderground v.1.15,2013-02-04 22:37:00,
2013-02-04 15:42:00,40.9,25.1,30.16,ENE,61,0.0,3.0,53,0.00,,,0.00,Wunderground v.1.15,2013-02-04 22:42:00,
2013-02-04 15:47:00,40.7,24.9,30.16,NW,326,4.0,5.0,53,0.00,,,0.00,Wunderground v.1.15,2013-02-04 22:47:00,
2013-02-04 15:52:00,41.1,25.3,30.16,NW,326,0.0,2.0,53,0.00,,,0.00,Wunderground v.1.15,2013-02-04 22:52:00,
2013-02-04 15:57:00,41.7,25.4,30.16,NW,326,0.0,2.0,52,0.00,,,0.00,Wunderground v.1.15,2013-02-04 22:57:00,
2013-02-04 16:02:00,42.9,25.0,30.15,NW,326,0.0,0.0,49,0.00,,,0.00,Wunderground v.1.15,2013-02-04 23:02:00,
2013-02-04 16:07:00,43.5,25.1,30.15,NW,326,0.0,0.0,48,0.00,,,0.00,Wunderground v.1.15,2013-02-04 23:07:00,
2013-02-04 16:12:00,43.5,25.1,30.15,NW,326,0.0,0.0,48,0.00,,,0.00,Wunderground v.1.15,2013-02-04 23:12:00,
2013-02-04 16:17:00,43.5,24.6,30.15,NW,326,0.0,0.0,47,0.00,,,0.00,Wunderground v.1.15,2013-02-04 23:17:00,
2013-02-04 16:22:00,43.5,25.1,30.15,NW,326,4.0,5.0,48,0.00,,,0.00,Wunderground v.1.15,2013-02-04 23:22:00,
2013-02-04 16:27:00,43.3,24.4,30.15,NW,326,4.0,5.0,47,0.00,,,0.00,Wunderground v.1.15,2013-02-04 23:27:00,
2013-02-04 16:32:00,42.4,24.6,30.15,NW,326,3.0,4.0,49,0.00,,,0.00,Wunderground v.1.15,2013-02-04 23:32:00,
2013-02-04 16:37:00,41.5,24.2,30.15,NW,319,5.0,6.0,50,0.00,,,0.00,Wunderground v.1.15,2013-02-04 23:37:00,
2013-02-04 16:42:00,39.8,23.1,30.15,NW,311,6.0,6.0,51,0.00,,,0.00,Wunderground v.1.15,2013-02-04 23:42:00,
2013-02-04 16:47:00,37.6,22.4,30.15,NW,308,5.0,7.0,54,0.00,,,0.00,Wunderground v.1.15,2013-02-04 23:47:00,
2013-02-04 16:53:00,35.6,21.9,30.15,NW,308,6.0,6.0,57,0.00,,,0.00,Wunderground v.1.15,2013-02-04 23:53:00,
2013-02-04 16:57:00,33.7,20.9,30.15,NW,313,5.0,6.0,59,0.00,,,0.00,Wunderground v.1.15,2013-02-04 23:57:00,
2013-02-04 17:02:00,31.9,20.3,30.15,NW,313,5.0,6.0,62,0.00,,,0.00,Wunderground v.1.15,2013-02-05 00:02:00,
2013-02-04 17:07:00,30.6,20.2,30.15,NW,313,3.0,6.0,65,0.00,,,0.00,Wunderground v.1.15,2013-02-05 00:07:00,
2013-02-04 17:12:00,29.7,20.1,30.15,NW,313,4.0,5.0,67,0.00,,,0.00,Wunderground v.1.15,2013-02-05 00:12:00,
2013-02-04 17:17:00,29.1,19.8,30.16,NW,314,3.0,5.0,68,0.00,,,0.00,Wunderground v.1.15,2013-02-05 00:17:00,
2013-02-04 17:22:00,28.4,19.5,30.16,NW,314,5.0,6.0,69,0.00,,,0.00,Wunderground v.1.15,2013-02-05 00:22:00,
2013-02-04 17:27:00,27.9,19.0,30.16,NW,315,4.0,6.0,69,0.00,,,0.00,Wunderground v.1.15,2013-02-05 00:27:00,
2013-02-04 17:32:00,27.5,18.7,30.16,NW,315,5.0,6.0,69,0.00,,,0.00,Wunderground v.1.15,2013-02-05 00:32:00,
2013-02-04 17:37:00,27.1,18.6,30.16,NW,309,5.0,6.0,70,0.00,,,0.00,Wunderground v.1.15,2013-02-05 00:37:00,
2013-02-04 17:43:00,27.0,18.5,30.16,NW,309,6.0,6.0,70,0.00,,,0.00,Wunderground v.1.15,2013-02-05 00:43:00,
2013-02-04 17:48:00,26.9,18.4,30.17,NW,309,5.0,6.0,70,0.00,,,0.00,Wunderground v.1.15,2013-02-05 00:48:00,
2013-02-04 17:52:00,26.6,18.5,30.16,NW,309,4.0,5.0,71,0.00,,,0.00,Wunderground v.1.15,2013-02-05 00:52:00,
2013-02-04 17:58:00,26.4,17.9,30.17,NW,309,5.0,7.0,70,0.00,,,0.00,Wunderground v.1.15,2013-02-05 00:58:00,
2013-02-04 18:02:00,26.2,17.7,30.18,NW,309,5.0,6.0,70,0.00,,,0.00,Wunderground v.1.15,2013-02-05 01:02:00,
2013-02-04 18:08:00,25.9,17.5,30.18,NW,304,7.0,8.0,70,0.00,,,0.00,Wunderground v.1.15,2013-02-05 01:08:00,
2013-02-04 18:13:00,25.6,17.5,30.18,NW,304,6.0,7.0,71,0.00,,,0.00,Wunderground v.1.15,2013-02-05 01:13:00,
2013-02-04 18:18:00,25.4,17.6,30.18,WNW,294,7.0,8.0,72,0.00,,,0.00,Wunderground v.1.15,2013-02-05 01:18:00,
2013-02-04 18:23:00,25.2,17.4,30.18,WNW,296,6.0,7.0,72,0.00,,,0.00,Wunderground v.1.15,2013-02-05 01:23:00,
2013-02-04 18:28:00,25.5,18.0,30.19,NW,311,5.0,7.0,73,0.00,,,0.00,Wunderground v.1.15,2013-02-05 01:28:00,
2013-02-04 18:33:00,25.6,18.1,30.19,NW,312,5.0,6.0,73,0.00,,,0.00,Wunderground v.1.15,2013-02-05 01:33:00,
2013-02-04 18:38:00,25.6,18.1,30.19,NW,312,5.0,6.0,73,0.00,,,0.00,Wunderground v.1.15,2013-02-05 01:38:00,
2013-02-04 18:43:00,25.3,17.5,30.19,WNW,299,6.0,7.0,72,0.00,,,0.00,Wunderground v.1.15,2013-02-05 01:43:00,
2013-02-04 18:48:00,25.0,17.6,30.19,WNW,295,7.0,8.0,73,0.00,,,0.00,Wunderground v.1.15,2013-02-05 01:48:00,
2013-02-04 18:53:00,24.7,17.0,30.19,WNW,303,6.0,7.0,72,0.00,,,0.00,Wunderground v.1.15,2013-02-05 01:53:00,
2013-02-04 18:58:00,24.4,16.7,30.19,WNW,302,6.0,8.0,72,0.00,,,0.00,Wunderground v.1.15,2013-02-05 01:58:00,
2013-02-04 19:03:00,23.9,16.2,30.20,WNW,300,6.0,8.0,72,0.00,,,0.00,Wunderground v.1.15,2013-02-05 02:03:00,
2013-02-04 19:08:00,23.6,15.9,30.20,WNW,301,5.0,8.0,72,0.00,,,0.00,Wunderground v.1.15,2013-02-05 02:08:00,
2013-02-04 19:13:00,23.1,15.1,30.20,WNW,299,5.0,6.0,71,0.00,,,0.00,Wunderground v.1.15,2013-02-05 02:13:00,
2013-02-04 19:18:00,22.8,14.8,30.20,WNW,299,5.0,7.0,71,0.00,,,0.00,Wunderground v.1.15,2013-02-05 02:18:00,
2013-02-04 19:23:00,22.8,14.8,30.20,NW,304,3.0,6.0,71,0.00,,,0.00,Wunderground v.1.15,2013-02-05 02:23:00,
2013-02-04 19:28:00,22.7,14.7,30.20,WNW,298,7.0,7.0,71,0.00,,,0.00,Wunderground v.1.15,2013-02-05 02:28:00,
2013-02-04 19:33:00,22.3,14.3,30.20,WNW,298,6.0,6.0,71,0.00,,,0.00,Wunderground v.1.15,2013-02-05 02:33:00,
2013-02-04 19:43:00,21.5,13.2,30.20,WNW,290,6.0,8.0,70,0.00,,,0.00,Wunderground v.1.15,2013-02-05 02:43:00,
2013-02-04 19:48:00,21.3,13.4,30.21,WNW,290,7.0,8.0,71,0.00,,,0.00,Wunderground v.1.15,2013-02-05 02:48:00,
2013-02-04 19:53:00,21.1,13.2,30.22,WNW,289,7.0,8.0,71,0.00,,,0.00,Wunderground v.1.15,2013-02-05 02:53:00,
2013-02-04 19:58:00,20.9,13.0,30.22,WNW,290,4.0,8.0,71,0.00,,,0.00,Wunderground v.1.15,2013-02-05 02:58:00,
2013-02-04 20:03:00,20.4,12.5,30.23,NNE,13,9.0,12.0,71,0.00,,,0.00,Wunderground v.1.15,2013-02-05 03:03:00,
2013-02-04 20:08:00,21.2,13.9,30.23,NW,321,6.0,12.0,73,0.00,,,0.00,Wunderground v.1.15,2013-02-05 03:08:00,
2013-02-04 20:13:00,22.8,15.4,30.23,NW,311,8.0,9.0,73,0.00,,,0.00,Wunderground v.1.15,2013-02-05 03:13:00,
2013-02-04 20:18:00,24.1,15.7,30.24,NW,304,7.0,9.0,70,0.00,,,0.00,Wunderground v.1.15,2013-02-05 03:18:00,
2013-02-04 20:23:00,24.6,15.2,30.23,WNW,303,7.0,9.0,67,0.00,,,0.00,Wunderground v.1.15,2013-02-05 03:23:00,
2013-02-04 20:28:00,24.5,14.4,30.23,WNW,301,7.0,9.0,65,0.00,,,0.00,Wunderground v.1.15,2013-02-05 03:28:00,
2013-02-04 20:33:00,24.1,14.4,30.23,WNW,301,5.0,8.0,66,0.00,,,0.00,Wunderground v.1.15,2013-02-05 03:33:00,
2013-02-04 20:38:00,23.7,14.0,30.23,NW,309,6.0,8.0,66,0.00,,,0.00,Wunderground v.1.15,2013-02-05 03:38:00,
2013-02-04 20:43:00,23.3,13.6,30.24,NW,309,2.0,6.0,66,0.00,,,0.00,Wunderground v.1.15,2013-02-05 03:43:00,
2013-02-04 20:48:00,22.8,13.1,30.23,NW,309,3.0,6.0,66,0.00,,,0.00,Wunderground v.1.15,2013-02-05 03:48:00,
2013-02-04 20:53:00,22.0,12.4,30.23,WNW,292,5.0,5.0,66,0.00,,,0.00,Wunderground v.1.15,2013-02-05 03:53:00,
2013-02-04 20:58:00,20.7,11.8,30.23,WNW,292,5.0,7.0,68,0.00,,,0.00,Wunderground v.1.15,2013-02-05 03:58:00,
2013-02-04 21:03:00,20.5,11.9,30.24,NW,316,6.0,7.0,69,0.00,,,0.00,Wunderground v.1.15,2013-02-05 04:03:00,
2013-02-04 21:08:00,20.2,11.7,30.24,NW,310,7.0,8.0,69,0.00,,,0.00,Wunderground v.1.15,2013-02-05 04:08:00,
2013-02-04 21:13:00,19.7,11.2,30.23,WNW,287,8.0,9.0,69,0.00,,,0.00,Wunderground v.1.15,2013-02-05 04:13:00,
2013-02-04 21:18:00,19.1,10.6,30.23,WNW,286,8.0,9.0,69,0.00,,,0.00,Wunderground v.1.15,2013-02-05 04:18:00,
2013-02-04 21:23:00,17.4,9.0,30.23,West,279,9.0,9.0,69,0.00,,,0.00,Wunderground v.1.15,2013-02-05 04:23:00,
2013-02-04 21:28:00,17.3,9.5,30.22,WNW,286,11.0,12.0,71,0.00,,,0.00,Wunderground v.1.15,2013-02-05 04:28:00,
2013-02-04 21:33:00,18.0,10.5,30.23,WNW,289,7.0,10.0,72,0.00,,,0.00,Wunderground v.1.15,2013-02-05 04:33:00,
2013-02-04 21:38:00,18.4,10.2,30.23,WNW,294,5.0,10.0,70,0.00,,,0.00,Wunderground v.1.15,2013-02-05 04:38:00,
2013-02-04 21:43:00,18.3,10.1,30.23,SSE,153,3.0,7.0,70,0.00,,,0.00,Wunderground v.1.15,2013-02-05 04:43:00,
2013-02-04 21:48:00,17.4,9.6,30.23,SSE,152,2.0,7.0,71,0.00,,,0.00,Wunderground v.1.15,2013-02-05 04:48:00,
2013-02-04 21:54:00,18.3,11.1,30.23,SSE,153,1.0,3.0,73,0.00,,,0.00,Wunderground v.1.15,2013-02-05 04:54:00,
2013-02-04 21:59:00,18.2,10.4,30.22,NNE,29,4.0,6.0,71,0.00,,,0.00,Wunderground v.1.15,2013-02-05 04:59:00,
2013-02-04 22:00:00,18.0,9.9,30.22,NNE,29,4.0,4.0,70,0.00,,,0.00,Wunderground v.1.15,2013-02-05 05:00:00,
2013-02-04 22:01:00,17.9,9.8,30.23,NNE,26,5.0,5.0,70,0.00,,,0.00,Wunderground v.1.15,2013-02-05 05:01:00,
2013-02-04 22:06:00,17.3,9.2,30.23,North,360,2.0,6.0,70,0.00,,,0.00,Wunderground v.1.15,2013-02-05 05:06:00,
2013-02-04 22:11:00,17.2,9.4,30.23,SE,133,0.0,7.0,71,0.00,,,0.00,Wunderground v.1.15,2013-02-05 05:11:00,
2013-02-04 22:16:00,17.0,9.5,30.23,SE,134,0.0,7.0,72,0.00,,,0.00,Wunderground v.1.15,2013-02-05 05:16:00,
2013-02-04 22:21:00,16.9,9.1,30.22,NW,304,2.0,6.0,71,0.00,,,0.00,Wunderground v.1.15,2013-02-05 05:21:00,
2013-02-04 22:26:00,16.9,9.4,30.23,NW,306,0.0,6.0,72,0.00,,,0.00,Wunderground v.1.15,2013-02-05 05:26:00,
2013-02-04 22:31:00,17.0,9.5,30.23,NW,306,0.0,2.0,72,0.00,,,0.00,Wunderground v.1.15,2013-02-05 05:31:00,
2013-02-04 22:36:00,17.3,9.8,30.23,North,360,0.0,2.0,72,0.00,,,0.00,Wunderground v.1.15,2013-02-05 05:36:00,
2013-02-04 22:41:00,17.5,9.7,30.23,North,360,2.0,2.0,71,0.00,,,0.00,Wunderground v.1.15,2013-02-05 05:41:00,
2013-02-04 22:46:00,17.3,9.2,30.23,North,360,1.0,4.0,70,0.00,,,0.00,Wunderground v.1.15,2013-02-05 05:46:00,
2013-02-04 22:51:00,17.4,9.9,30.22,North,360,1.0,2.0,72,0.00,,,0.00,Wunderground v.1.15,2013-02-05 05:51:00,
2013-02-04 22:56:00,17.1,8.7,30.23,North,360,1.0,5.0,69,0.00,,,0.00,Wunderground v.1.15,2013-02-05 05:56:00,
2013-02-04 23:01:00,16.7,8.9,30.23,North,360,1.0,2.0,71,0.00,,,0.00,Wunderground v.1.15,2013-02-05 06:01:00,
2013-02-04 23:06:00,16.4,8.3,30.23,North,360,3.0,4.0,70,0.00,,,0.00,Wunderground v.1.15,2013-02-05 06:06:00,
2013-02-04 23:11:00,16.5,8.7,30.23,NW,322,5.0,7.0,71,0.00,,,0.00,Wunderground v.1.15,2013-02-05 06:11:00,
2013-02-04 23:16:00,17.4,9.3,30.23,NW,309,5.0,7.0,70,0.00,,,0.00,Wunderground v.1.15,2013-02-05 06:16:00,
2013-02-04 23:21:00,17.6,8.5,30.23,NW,307,4.0,5.0,67,0.00,,,0.00,Wunderground v.1.15,2013-02-05 06:21:00,
2013-02-04 23:26:00,16.1,6.7,30.22,WNW,287,4.0,5.0,66,0.00,,,0.00,Wunderground v.1.15,2013-02-05 06:26:00,
2013-02-04 23:31:00,14.2,5.2,30.22,South,176,6.0,7.0,67,0.00,,,0.00,Wunderground v.1.15,2013-02-05 06:31:00,
2013-02-04 23:36:00,13.9,5.9,30.23,SSE,150,7.0,7.0,70,0.00,,,0.00,Wunderground v.1.15,2013-02-05 06:36:00,
2013-02-04 23:41:00,14.5,7.4,30.23,SSE,148,7.0,9.0,73,0.00,,,0.00,Wunderground v.1.15,2013-02-05 06:41:00,
2013-02-04 23:46:00,15.7,8.3,30.23,South,182,5.0,9.0,72,0.00,,,0.00,Wunderground v.1.15,2013-02-05 06:46:00,
2013-02-04 23:51:00,16.2,8.8,30.23,SSE,153,7.0,8.0,72,0.00,,,0.00,Wunderground v.1.15,2013-02-05 06:51:00,
2013-02-04 23:56:00,16.0,7.9,30.23,SSW,202,7.0,8.0,70,0.00,,,0.00,Wunderground v.1.15,2013-02-05 06:56:00,